createdAt,value
2022-08-31T00:00:31.889Z,1024.413450788
2022-08-31T00:01:32.012Z,1024.21026806
2022-08-31T00:02:31.971Z,1024.413450788
2022-08-31T00:03:31.888Z,1024.311859424
2022-08-31T00:04:31.933Z,1024.311859424
2022-08-31T00:05:31.895Z,1024.413450788
2022-08-31T00:06:31.908Z,1024.413450788
2022-08-31T00:07:31.892Z,1024.5150421520002
2022-08-31T00:08:31.895Z,1024.413450788
2022-08-31T00:09:31.889Z,1024.311859424
2022-08-31T00:10:36.808Z,1024.5150421520002
2022-08-31T00:11:31.894Z,1024.21026806
2022-08-31T00:12:31.887Z,1024.413450788
2022-08-31T00:13:31.954Z,1024.21026806
2022-08-31T00:14:31.904Z,1024.21026806
2022-08-31T00:15:31.915Z,1024.311859424
2022-08-31T00:16:32.067Z,1024.21026806
2022-08-31T00:17:31.886Z,1024.413450788
2022-08-31T00:18:31.885Z,1024.311859424
2022-08-31T00:19:31.917Z,1024.108676696
2022-08-31T00:20:33.058Z,1024.21026806
2022-08-31T00:21:31.905Z,1024.5150421520002
2022-08-31T00:22:31.881Z,1024.311859424
2022-08-31T00:23:31.887Z,1024.21026806
2022-08-31T00:24:31.912Z,1024.311859424
2022-08-31T00:25:31.887Z,1024.21026806
2022-08-31T00:26:31.851Z,1024.311859424
2022-08-31T00:27:31.901Z,1024.311859424
2022-08-31T00:28:31.882Z,1024.413450788
2022-08-31T00:29:31.886Z,1024.108676696
2022-08-31T00:30:31.911Z,1024.311859424
2022-08-31T00:31:31.943Z,1024.311859424
2022-08-31T00:32:31.890Z,1024.21026806
2022-08-31T00:33:31.907Z,1024.5150421520002
2022-08-31T00:34:31.866Z,1024.311859424
2022-08-31T00:35:31.920Z,1024.311859424
2022-08-31T00:36:31.884Z,1024.311859424
2022-08-31T00:37:31.885Z,1024.413450788
2022-08-31T00:38:31.877Z,1024.413450788
2022-08-31T00:39:31.907Z,1024.311859424
2022-08-31T00:40:31.926Z,1024.311859424
2022-08-31T00:41:31.885Z,1024.311859424
2022-08-31T00:42:31.904Z,1024.311859424
2022-08-31T00:43:31.897Z,1024.413450788
2022-08-31T00:44:31.873Z,1024.311859424
2022-08-31T00:45:31.914Z,1024.413450788
2022-08-31T00:46:31.858Z,1024.311859424
2022-08-31T00:47:31.903Z,1024.413450788
2022-08-31T00:48:31.883Z,1024.21026806
2022-08-31T00:49:31.883Z,1024.108676696
2022-08-31T00:50:31.853Z,1024.311859424
2022-08-31T00:51:31.875Z,1024.311859424
2022-08-31T00:52:37.444Z,1024.413450788
2022-08-31T00:53:31.892Z,1024.21026806
2022-08-31T00:54:31.877Z,1024.413450788
2022-08-31T00:55:31.986Z,1024.616633516
2022-08-31T00:56:31.906Z,1024.21026806
2022-08-31T00:57:34.471Z,1024.5150421520002
2022-08-31T00:58:31.893Z,1024.413450788
2022-08-31T00:59:31.872Z,1024.21026806
2022-08-31T01:00:31.874Z,1024.413450788
2022-08-31T01:01:31.961Z,1024.311859424
2022-08-31T01:02:32.022Z,1024.413450788
2022-08-31T01:03:31.871Z,1024.413450788
2022-08-31T01:04:31.868Z,1024.311859424
2022-08-31T01:05:31.896Z,1024.5150421520002
2022-08-31T01:06:31.834Z,1024.21026806
2022-08-31T01:07:31.866Z,1024.5150421520002
2022-08-31T01:08:31.894Z,1024.5150421520002
2022-08-31T01:09:31.921Z,1024.21026806
2022-08-31T01:10:31.883Z,1024.5150421520002
2022-08-31T01:11:31.878Z,1024.413450788
2022-08-31T01:12:31.891Z,1024.5150421520002
2022-08-31T01:13:31.882Z,1024.311859424
2022-08-31T01:14:31.892Z,1024.5150421520002
2022-08-31T01:15:31.859Z,1024.311859424
2022-08-31T01:16:32.090Z,1024.413450788
2022-08-31T01:17:31.854Z,1024.413450788
2022-08-31T01:18:31.895Z,1024.413450788
2022-08-31T01:19:31.872Z,1024.616633516
2022-08-31T01:20:31.948Z,1024.311859424
2022-08-31T01:21:31.951Z,1024.5150421520002
2022-08-31T01:22:31.881Z,1024.311859424
2022-08-31T01:23:31.858Z,1024.616633516
2022-08-31T01:24:31.891Z,1024.5150421520002
2022-08-31T01:25:33.367Z,1024.5150421520002
2022-08-31T01:26:31.881Z,1024.413450788
2022-08-31T01:27:31.874Z,1024.311859424
2022-08-31T01:28:31.942Z,1024.71822488
2022-08-31T01:29:32.093Z,1024.5150421520002
2022-08-31T01:30:31.897Z,1024.71822488
2022-08-31T01:31:31.945Z,1024.5150421520002
2022-08-31T01:32:31.890Z,1024.413450788
2022-08-31T01:33:31.967Z,1024.413450788
2022-08-31T01:34:31.915Z,1024.5150421520002
2022-08-31T01:35:31.867Z,1024.5150421520002
2022-08-31T01:36:31.888Z,1024.5150421520002
2022-08-31T01:37:32.886Z,1024.21026806
2022-08-31T01:38:31.892Z,1024.5150421520002
2022-08-31T01:39:31.875Z,1024.5150421520002
2022-08-31T01:40:32.169Z,1024.5150421520002
2022-08-31T01:41:32.061Z,1024.413450788
2022-08-31T01:42:34.254Z,1024.413450788
2022-08-31T01:43:32.054Z,1024.616633516
2022-08-31T01:44:32.010Z,1024.5150421520002
2022-08-31T01:45:32.040Z,1024.413450788
2022-08-31T01:46:32.034Z,1024.71822488
2022-08-31T01:47:32.008Z,1024.5150421520002
2022-08-31T01:48:31.891Z,1024.5150421520002
2022-08-31T01:49:31.855Z,1024.5150421520002
2022-08-31T01:50:31.871Z,1024.71822488
2022-08-31T01:51:31.879Z,1024.5150421520002
2022-08-31T01:52:31.880Z,1024.5150421520002
2022-08-31T01:53:31.893Z,1024.413450788
2022-08-31T01:54:31.904Z,1024.413450788
2022-08-31T01:55:31.847Z,1024.616633516
2022-08-31T01:56:31.857Z,1024.5150421520002
2022-08-31T01:57:34.177Z,1024.5150421520002
2022-08-31T01:58:31.865Z,1024.71822488
2022-08-31T01:59:31.872Z,1024.616633516
2022-08-31T02:00:31.985Z,1024.5150421520002
2022-08-31T02:01:33.775Z,1024.71822488
2022-08-31T02:02:31.914Z,1024.616633516
2022-08-31T02:03:31.866Z,1024.413450788
2022-08-31T02:04:31.898Z,1024.413450788
2022-08-31T02:05:32.178Z,1024.5150421520002
2022-08-31T02:06:31.935Z,1024.413450788
2022-08-31T02:07:31.905Z,1024.413450788
2022-08-31T02:08:31.886Z,1024.413450788
2022-08-31T02:09:31.835Z,1024.71822488
2022-08-31T02:10:31.889Z,1024.413450788
2022-08-31T02:11:31.901Z,1024.5150421520002
2022-08-31T02:12:31.871Z,1024.616633516
2022-08-31T02:13:31.850Z,1024.5150421520002
2022-08-31T02:14:31.875Z,1024.413450788
2022-08-31T02:15:31.889Z,1024.5150421520002
2022-08-31T02:16:31.938Z,1024.5150421520002
2022-08-31T02:17:31.846Z,1024.311859424
2022-08-31T02:18:31.880Z,1024.413450788
2022-08-31T02:19:31.871Z,1024.5150421520002
2022-08-31T02:20:31.914Z,1024.21026806
2022-08-31T02:21:31.834Z,1024.413450788
2022-08-31T02:22:31.879Z,1024.413450788
2022-08-31T02:23:31.873Z,1024.616633516
2022-08-31T02:24:31.904Z,1024.5150421520002
2022-08-31T02:25:31.887Z,1024.413450788
2022-08-31T02:26:31.896Z,1024.5150421520002
2022-08-31T02:27:31.882Z,1024.616633516
2022-08-31T02:28:31.864Z,1024.616633516
2022-08-31T02:29:31.838Z,1024.311859424
2022-08-31T02:30:31.874Z,1024.616633516
2022-08-31T02:31:31.910Z,1024.5150421520002
2022-08-31T02:32:31.884Z,1024.71822488
2022-08-31T02:33:31.866Z,1024.413450788
2022-08-31T02:34:31.860Z,1024.413450788
2022-08-31T02:35:31.883Z,1024.616633516
2022-08-31T02:36:31.893Z,1024.5150421520002
2022-08-31T02:37:31.844Z,1024.71822488
2022-08-31T02:38:31.896Z,1024.616633516
2022-08-31T02:39:31.888Z,1024.71822488
2022-08-31T02:40:31.953Z,1024.5150421520002
2022-08-31T02:41:31.849Z,1024.5150421520002
2022-08-31T02:42:52.213Z,1024.616633516
2022-08-31T02:43:32.011Z,1024.616633516
2022-08-31T02:44:31.870Z,1024.5150421520002
2022-08-31T02:45:31.836Z,1024.616633516
2022-08-31T02:46:31.947Z,1024.616633516
2022-08-31T02:47:31.863Z,1024.616633516
2022-08-31T02:48:31.869Z,1024.5150421520002
2022-08-31T02:49:31.859Z,1024.819816244
2022-08-31T02:50:31.887Z,1024.71822488
2022-08-31T02:51:31.878Z,1024.819816244
2022-08-31T02:52:31.869Z,1024.819816244
2022-08-31T02:53:31.954Z,1024.71822488
2022-08-31T02:54:31.858Z,1024.616633516
2022-08-31T02:55:31.874Z,1024.616633516
2022-08-31T02:56:32.030Z,1024.616633516
2022-08-31T02:57:31.850Z,1024.616633516
2022-08-31T02:58:31.878Z,1024.9214076079998
2022-08-31T02:59:31.867Z,1024.616633516
2022-08-31T03:00:32.184Z,1024.819816244
2022-08-31T03:01:31.938Z,1024.9214076079998
2022-08-31T03:02:32.399Z,1024.71822488
2022-08-31T03:03:32.000Z,1024.71822488
2022-08-31T03:04:31.933Z,1024.71822488
2022-08-31T03:05:31.860Z,1024.413450788
2022-08-31T03:06:31.887Z,1024.71822488
2022-08-31T03:07:31.858Z,1024.5150421520002
2022-08-31T03:08:32.030Z,1024.71822488
2022-08-31T03:09:31.852Z,1024.819816244
2022-08-31T03:10:31.989Z,1024.71822488
2022-08-31T03:11:32.069Z,1024.819816244
2022-08-31T03:12:31.997Z,1024.71822488
2022-08-31T03:13:31.903Z,1024.616633516
2022-08-31T03:14:31.950Z,1024.616633516
2022-08-31T03:15:32.078Z,1024.616633516
2022-08-31T03:16:31.991Z,1024.71822488
2022-08-31T03:17:32.038Z,1024.616633516
2022-08-31T03:18:31.855Z,1024.819816244
2022-08-31T03:19:32.037Z,1024.819816244
2022-08-31T03:20:31.990Z,1024.71822488
2022-08-31T03:21:32.016Z,1024.616633516
2022-08-31T03:22:31.961Z,1024.616633516
2022-08-31T03:23:32.026Z,1024.819816244
2022-08-31T03:24:31.889Z,1024.616633516
2022-08-31T03:25:31.947Z,1024.616633516
2022-08-31T03:26:31.967Z,1024.616633516
2022-08-31T03:27:31.879Z,1024.71822488
2022-08-31T03:28:32.039Z,1024.616633516
2022-08-31T03:29:32.078Z,1024.616633516
2022-08-31T03:30:31.851Z,1024.413450788
2022-08-31T03:31:31.956Z,1024.616633516
2022-08-31T03:32:31.888Z,1024.5150421520002
2022-08-31T03:33:31.904Z,1024.71822488
2022-08-31T03:34:31.873Z,1024.819816244
2022-08-31T03:35:31.856Z,1024.71822488
2022-08-31T03:36:31.880Z,1024.71822488
2022-08-31T03:37:31.870Z,1024.71822488
2022-08-31T03:38:31.847Z,1024.71822488
2022-08-31T03:39:31.866Z,1024.71822488
2022-08-31T03:40:32.054Z,1024.819816244
2022-08-31T03:41:31.881Z,1024.819816244
2022-08-31T03:42:32.232Z,1024.9214076079998
2022-08-31T03:43:31.888Z,1024.819816244
2022-08-31T03:44:31.867Z,1024.71822488
2022-08-31T03:45:31.925Z,1024.819816244
2022-08-31T03:46:32.090Z,1024.71822488
2022-08-31T03:47:31.909Z,1024.71822488
2022-08-31T03:48:31.879Z,1024.9214076079998
2022-08-31T03:49:31.872Z,1024.9214076079998
2022-08-31T03:50:31.848Z,1024.616633516
2022-08-31T03:51:31.879Z,1024.819816244
2022-08-31T03:52:31.871Z,1024.819816244
2022-08-31T03:53:31.887Z,1024.71822488
2022-08-31T03:54:31.864Z,1024.819816244
2022-08-31T03:55:32.621Z,1024.819816244
2022-08-31T03:56:31.868Z,1024.71822488
2022-08-31T03:57:31.865Z,1024.71822488
2022-08-31T03:58:31.820Z,1024.819816244
2022-08-31T03:59:31.849Z,1024.819816244
2022-08-31T04:00:31.884Z,1024.9214076079998
2022-08-31T04:01:31.975Z,1024.819816244
2022-08-31T04:02:36.885Z,1024.819816244
2022-08-31T04:03:31.851Z,1024.9214076079998
2022-08-31T04:04:31.895Z,1024.71822488
2022-08-31T04:05:31.878Z,1024.71822488
2022-08-31T04:06:31.863Z,1024.71822488
2022-08-31T04:07:38.431Z,1024.71822488
2022-08-31T04:08:31.883Z,1024.616633516
2022-08-31T04:09:31.853Z,1024.71822488
2022-08-31T04:10:31.861Z,1024.9214076079998
2022-08-31T04:11:45.077Z,1024.71822488
2022-08-31T04:12:31.863Z,1024.819816244
2022-08-31T04:13:31.947Z,1024.9214076079998
2022-08-31T04:14:31.843Z,1024.9214076079998
2022-08-31T04:15:31.887Z,1024.616633516
2022-08-31T04:16:31.859Z,1024.9214076079998
2022-08-31T04:17:31.858Z,1025.0229989719999
2022-08-31T04:18:31.914Z,1024.71822488
2022-08-31T04:19:31.858Z,1024.819816244
2022-08-31T04:20:31.857Z,1024.9214076079998
2022-08-31T04:21:31.865Z,1024.819816244
2022-08-31T04:22:31.864Z,1024.9214076079998
2022-08-31T04:23:31.867Z,1025.124590336
2022-08-31T04:24:31.880Z,1024.9214076079998
2022-08-31T04:25:31.916Z,1024.9214076079998
2022-08-31T04:26:31.883Z,1024.9214076079998
2022-08-31T04:27:31.836Z,1024.9214076079998
2022-08-31T04:28:31.908Z,1025.0229989719999
2022-08-31T04:29:31.866Z,1025.0229989719999
2022-08-31T04:30:31.867Z,1024.9214076079998
2022-08-31T04:31:31.925Z,1024.71822488
2022-08-31T04:32:31.860Z,1024.819816244
2022-08-31T04:33:31.871Z,1025.124590336
2022-08-31T04:34:31.863Z,1025.0229989719999
2022-08-31T04:35:31.834Z,1024.819816244
2022-08-31T04:36:31.854Z,1024.819816244
2022-08-31T04:37:31.881Z,1024.9214076079998
2022-08-31T04:38:31.895Z,1024.9214076079998
2022-08-31T04:39:31.842Z,1024.71822488
2022-08-31T04:40:31.861Z,1024.9214076079998
2022-08-31T04:41:31.906Z,1025.0229989719999
2022-08-31T04:42:31.875Z,1025.124590336
2022-08-31T04:43:31.849Z,1024.9214076079998
2022-08-31T04:44:31.877Z,1024.819816244
2022-08-31T04:45:31.907Z,1024.9214076079998
2022-08-31T04:46:31.893Z,1025.0229989719999
2022-08-31T04:47:31.847Z,1024.819816244
2022-08-31T04:48:31.868Z,1024.616633516
2022-08-31T04:49:31.861Z,1024.819816244
2022-08-31T04:50:31.856Z,1024.819816244
2022-08-31T04:51:31.836Z,1024.819816244
2022-08-31T04:52:31.857Z,1024.9214076079998
2022-08-31T04:53:31.836Z,1025.0229989719999
2022-08-31T04:54:31.842Z,1025.0229989719999
2022-08-31T04:55:31.840Z,1024.9214076079998
2022-08-31T04:56:31.862Z,1024.819816244
2022-08-31T04:57:31.871Z,1025.124590336
2022-08-31T04:58:31.856Z,1024.9214076079998
2022-08-31T04:59:31.834Z,1024.9214076079998
2022-08-31T05:00:31.903Z,1025.0229989719999
2022-08-31T05:01:36.114Z,1025.327773064
2022-08-31T05:02:31.977Z,1025.124590336
2022-08-31T05:03:31.834Z,1024.9214076079998
2022-08-31T05:04:31.898Z,1025.124590336
2022-08-31T05:05:31.876Z,1025.2261816999999
2022-08-31T05:06:31.921Z,1025.124590336
2022-08-31T05:07:31.900Z,1025.4293644279999
2022-08-31T05:08:31.868Z,1025.124590336
2022-08-31T05:09:31.836Z,1025.124590336
2022-08-31T05:10:31.855Z,1025.124590336
2022-08-31T05:11:31.854Z,1025.327773064
2022-08-31T05:12:31.847Z,1024.9214076079998
2022-08-31T05:13:31.915Z,1025.0229989719999
2022-08-31T05:14:31.856Z,1025.2261816999999
2022-08-31T05:15:31.966Z,1025.0229989719999
2022-08-31T05:16:31.950Z,1025.124590336
2022-08-31T05:17:31.870Z,1025.124590336
2022-08-31T05:18:32.148Z,1025.124590336
2022-08-31T05:19:31.863Z,1025.124590336
2022-08-31T05:20:31.876Z,1025.0229989719999
2022-08-31T05:21:31.855Z,1025.124590336
2022-08-31T05:22:31.865Z,1025.0229989719999
2022-08-31T05:23:31.858Z,1025.124590336
2022-08-31T05:24:31.875Z,1025.124590336
2022-08-31T05:25:31.854Z,1025.0229989719999
2022-08-31T05:26:31.855Z,1025.124590336
2022-08-31T05:27:31.881Z,1024.9214076079998
2022-08-31T05:28:31.852Z,1025.124590336
2022-08-31T05:29:31.875Z,1025.124590336
2022-08-31T05:30:31.846Z,1025.0229989719999
2022-08-31T05:31:31.938Z,1025.124590336
2022-08-31T05:32:31.852Z,1025.124590336
2022-08-31T05:33:31.849Z,1025.2261816999999
2022-08-31T05:34:31.862Z,1025.0229989719999
2022-08-31T05:35:31.858Z,1025.124590336
2022-08-31T05:36:31.845Z,1025.2261816999999
2022-08-31T05:37:31.919Z,1025.124590336
2022-08-31T05:38:31.865Z,1025.2261816999999
2022-08-31T05:39:31.933Z,1025.124590336
2022-08-31T05:40:31.911Z,1025.124590336
2022-08-31T05:41:31.856Z,1025.2261816999999
2022-08-31T05:42:31.885Z,1025.124590336
2022-08-31T05:43:31.870Z,1025.124590336
2022-08-31T05:44:31.867Z,1025.0229989719999
2022-08-31T05:45:31.834Z,1025.2261816999999
2022-08-31T05:46:31.954Z,1025.124590336
2022-08-31T05:47:31.933Z,1025.2261816999999
2022-08-31T05:48:31.873Z,1025.2261816999999
2022-08-31T05:49:32.247Z,1025.124590336
2022-08-31T05:50:31.840Z,1025.0229989719999
2022-08-31T05:51:34.930Z,1025.2261816999999
2022-08-31T05:52:31.864Z,1025.124590336
2022-08-31T05:53:31.871Z,1025.124590336
2022-08-31T05:54:31.876Z,1025.124590336
2022-08-31T05:55:31.863Z,1025.2261816999999
2022-08-31T05:56:31.879Z,1025.4293644279999
2022-08-31T05:57:31.909Z,1025.124590336
2022-08-31T05:58:31.838Z,1025.4293644279999
2022-08-31T05:59:31.852Z,1025.327773064
2022-08-31T06:00:31.912Z,1025.124590336
2022-08-31T06:01:32.084Z,1025.124590336
2022-08-31T06:02:31.843Z,1025.4293644279999
2022-08-31T06:03:31.856Z,1025.2261816999999
2022-08-31T06:04:31.930Z,1025.2261816999999
2022-08-31T06:05:31.897Z,1025.2261816999999
2022-08-31T06:06:31.853Z,1025.2261816999999
2022-08-31T06:07:31.783Z,1025.327773064
2022-08-31T06:08:31.867Z,1025.327773064
2022-08-31T06:09:31.851Z,1025.327773064
2022-08-31T06:10:31.862Z,1025.124590336
2022-08-31T06:11:31.828Z,1025.4293644279999
2022-08-31T06:12:31.868Z,1025.327773064
2022-08-31T06:13:31.913Z,1025.327773064
2022-08-31T06:14:31.865Z,1025.124590336
2022-08-31T06:15:31.858Z,1025.124590336
2022-08-31T06:16:31.897Z,1025.2261816999999
2022-08-31T06:17:31.837Z,1025.327773064
2022-08-31T06:18:31.851Z,1025.4293644279999
2022-08-31T06:19:31.851Z,1025.4293644279999
2022-08-31T06:20:31.834Z,1025.327773064
2022-08-31T06:21:31.837Z,1025.530955792
2022-08-31T06:22:31.830Z,1025.530955792
2022-08-31T06:23:31.826Z,1025.327773064
2022-08-31T06:24:31.843Z,1025.327773064
2022-08-31T06:25:31.809Z,1025.4293644279999
2022-08-31T06:26:31.830Z,1025.530955792
2022-08-31T06:27:31.894Z,1025.327773064
2022-08-31T06:28:31.842Z,1025.4293644279999
2022-08-31T06:29:31.934Z,1025.4293644279999
2022-08-31T06:30:31.906Z,1025.327773064
2022-08-31T06:31:31.904Z,1025.2261816999999
2022-08-31T06:32:31.855Z,1025.327773064
2022-08-31T06:33:31.830Z,1025.4293644279999
2022-08-31T06:34:31.846Z,1025.4293644279999
2022-08-31T06:35:31.849Z,1025.4293644279999
2022-08-31T06:36:31.854Z,1025.530955792
2022-08-31T06:37:31.856Z,1025.327773064
2022-08-31T06:38:32.927Z,1025.530955792
2022-08-31T06:39:31.890Z,1025.530955792
2022-08-31T06:40:31.892Z,1025.4293644279999
2022-08-31T06:41:36.190Z,1025.530955792
2022-08-31T06:42:31.849Z,1025.4293644279999
2022-08-31T06:43:31.891Z,1025.4293644279999
2022-08-31T06:44:31.851Z,1025.4293644279999
2022-08-31T06:45:31.844Z,1025.4293644279999
2022-08-31T06:46:31.920Z,1025.4293644279999
2022-08-31T06:47:31.851Z,1025.4293644279999
2022-08-31T06:48:31.836Z,1025.530955792
2022-08-31T06:49:31.834Z,1025.530955792
2022-08-31T06:50:31.838Z,1025.4293644279999
2022-08-31T06:51:31.843Z,1025.530955792
2022-08-31T06:52:35.691Z,1025.4293644279999
2022-08-31T06:53:31.817Z,1025.327773064
2022-08-31T06:54:31.861Z,1025.327773064
2022-08-31T06:55:31.859Z,1025.4293644279999
2022-08-31T06:56:31.863Z,1025.327773064
2022-08-31T06:57:31.813Z,1025.4293644279999
2022-08-31T06:58:31.838Z,1025.6325471559999
2022-08-31T06:59:31.848Z,1025.4293644279999
2022-08-31T07:00:31.855Z,1025.4293644279999
2022-08-31T07:01:35.182Z,1025.327773064
2022-08-31T07:02:31.891Z,1025.530955792
2022-08-31T07:03:31.858Z,1025.2261816999999
2022-08-31T07:04:31.834Z,1025.530955792
2022-08-31T07:05:31.831Z,1025.4293644279999
2022-08-31T07:06:31.843Z,1025.327773064
2022-08-31T07:07:31.851Z,1025.4293644279999
2022-08-31T07:08:31.847Z,1025.327773064
2022-08-31T07:09:31.834Z,1025.4293644279999
2022-08-31T07:10:31.843Z,1025.124590336
2022-08-31T07:11:31.841Z,1025.124590336
2022-08-31T07:12:31.853Z,1025.2261816999999
2022-08-31T07:13:31.832Z,1025.327773064
2022-08-31T07:14:31.833Z,1025.2261816999999
2022-08-31T07:15:31.888Z,1025.327773064
2022-08-31T07:16:31.902Z,1025.2261816999999
2022-08-31T07:17:31.858Z,1025.2261816999999
2022-08-31T07:18:31.829Z,1025.327773064
2022-08-31T07:19:31.827Z,1025.2261816999999
2022-08-31T07:20:31.869Z,1025.124590336
2022-08-31T07:21:31.845Z,1025.4293644279999
2022-08-31T07:22:31.836Z,1025.2261816999999
2022-08-31T07:23:31.851Z,1025.327773064
2022-08-31T07:24:31.820Z,1025.2261816999999
2022-08-31T07:25:31.839Z,1025.327773064
2022-08-31T07:26:36.189Z,1025.327773064
2022-08-31T07:27:31.850Z,1025.327773064
2022-08-31T07:28:31.837Z,1025.327773064
2022-08-31T07:29:31.844Z,1025.124590336
2022-08-31T07:30:33.321Z,1025.2261816999999
2022-08-31T07:31:31.867Z,1025.124590336
2022-08-31T07:32:31.821Z,1025.327773064
2022-08-31T07:33:31.863Z,1025.327773064
2022-08-31T07:34:31.821Z,1025.530955792
2022-08-31T07:35:31.851Z,1025.4293644279999
2022-08-31T07:36:31.861Z,1025.4293644279999
2022-08-31T07:37:32.078Z,1025.124590336
2022-08-31T07:38:31.833Z,1025.327773064
2022-08-31T07:39:31.830Z,1025.327773064
2022-08-31T07:40:31.911Z,1025.327773064
2022-08-31T07:41:31.820Z,1025.327773064
2022-08-31T07:42:31.826Z,1025.4293644279999
2022-08-31T07:43:31.847Z,1025.4293644279999
2022-08-31T07:44:31.834Z,1025.2261816999999
2022-08-31T07:45:35.658Z,1025.2261816999999
2022-08-31T07:46:31.988Z,1025.2261816999999
2022-08-31T07:47:31.838Z,1025.124590336
2022-08-31T07:48:31.854Z,1025.2261816999999
2022-08-31T07:49:31.845Z,1025.327773064
2022-08-31T07:50:31.862Z,1025.2261816999999
2022-08-31T07:51:31.837Z,1025.0229989719999
2022-08-31T07:52:31.884Z,1025.0229989719999
2022-08-31T07:53:31.895Z,1025.2261816999999
2022-08-31T07:54:31.906Z,1025.327773064
2022-08-31T07:55:31.833Z,1025.124590336
2022-08-31T07:56:34.180Z,1025.2261816999999
2022-08-31T07:57:32.025Z,1025.0229989719999
2022-08-31T07:58:31.836Z,1025.124590336
2022-08-31T07:59:31.828Z,1025.124590336
2022-08-31T08:00:31.868Z,1025.0229989719999
2022-08-31T08:01:31.870Z,1025.0229989719999
2022-08-31T08:02:31.880Z,1025.0229989719999
2022-08-31T08:03:31.972Z,1025.0229989719999
2022-08-31T08:04:31.871Z,1024.9214076079998
2022-08-31T08:05:31.867Z,1025.124590336
2022-08-31T08:06:32.865Z,1025.124590336
2022-08-31T08:07:31.789Z,1024.819816244
2022-08-31T08:08:31.976Z,1024.819816244
2022-08-31T08:09:32.334Z,1024.9214076079998
2022-08-31T08:10:31.847Z,1025.0229989719999
2022-08-31T08:11:31.860Z,1025.0229989719999
2022-08-31T08:12:31.838Z,1024.9214076079998
2022-08-31T08:13:31.840Z,1024.9214076079998
2022-08-31T08:14:31.888Z,1024.819816244
2022-08-31T08:15:31.837Z,1024.9214076079998
2022-08-31T08:16:31.870Z,1024.819816244
2022-08-31T08:17:31.829Z,1024.9214076079998
2022-08-31T08:18:31.843Z,1024.819816244
2022-08-31T08:19:31.841Z,1024.9214076079998
2022-08-31T08:20:37.856Z,1024.9214076079998
2022-08-31T08:21:31.892Z,1025.0229989719999
2022-08-31T08:22:51.445Z,1025.0229989719999
2022-08-31T08:23:31.908Z,1024.819816244
2022-08-31T08:24:31.843Z,1025.0229989719999
2022-08-31T08:25:31.847Z,1024.819816244
2022-08-31T08:26:31.840Z,1025.0229989719999
2022-08-31T08:27:31.820Z,1025.0229989719999
2022-08-31T08:28:39.334Z,1024.9214076079998
2022-08-31T08:29:33.577Z,1025.0229989719999
2022-08-31T08:30:31.868Z,1024.819816244
2022-08-31T08:31:31.926Z,1025.0229989719999
2022-08-31T08:32:31.816Z,1024.9214076079998
2022-08-31T08:33:31.827Z,1024.819816244
2022-08-31T08:34:32.919Z,1025.0229989719999
2022-08-31T08:35:31.932Z,1024.71822488
2022-08-31T08:36:31.822Z,1024.9214076079998
2022-08-31T08:37:56.558Z,1024.9214076079998
2022-08-31T08:38:31.893Z,1024.819816244
2022-08-31T08:39:31.891Z,1024.819816244
2022-08-31T08:40:31.870Z,1024.9214076079998
2022-08-31T08:41:31.826Z,1024.9214076079998
2022-08-31T08:42:31.817Z,1024.9214076079998
2022-08-31T08:43:31.849Z,1025.124590336
2022-08-31T08:44:31.863Z,1024.71822488
2022-08-31T08:45:31.888Z,1024.71822488
2022-08-31T08:46:35.077Z,1024.9214076079998
2022-08-31T08:47:37.609Z,1024.9214076079998
2022-08-31T08:48:31.830Z,1024.9214076079998
2022-08-31T08:49:31.825Z,1024.9214076079998
2022-08-31T08:50:31.865Z,1024.9214076079998
2022-08-31T08:51:31.845Z,1024.71822488
2022-08-31T08:52:31.812Z,1024.9214076079998
2022-08-31T08:53:31.834Z,1024.9214076079998
2022-08-31T08:54:31.870Z,1024.819816244
2022-08-31T08:55:31.838Z,1025.0229989719999
2022-08-31T08:56:33.179Z,1024.819816244
2022-08-31T08:57:31.827Z,1024.9214076079998
2022-08-31T08:58:31.826Z,1024.71822488
2022-08-31T08:59:31.810Z,1024.819816244
2022-08-31T09:00:31.846Z,1024.9214076079998
2022-08-31T09:01:31.915Z,1024.71822488
2022-08-31T09:02:31.870Z,1024.71822488
2022-08-31T09:03:31.849Z,1024.71822488
2022-08-31T09:04:31.836Z,1024.819816244
2022-08-31T09:05:31.891Z,1024.5150421520002
2022-08-31T09:06:32.131Z,1024.71822488
2022-08-31T09:07:31.852Z,1024.819816244
2022-08-31T09:08:31.805Z,1024.5150421520002
2022-08-31T09:09:31.808Z,1024.5150421520002
2022-08-31T09:10:31.820Z,1024.819816244
2022-08-31T09:11:31.849Z,1024.5150421520002
2022-08-31T09:12:31.854Z,1024.616633516
2022-08-31T09:13:31.796Z,1024.616633516
2022-08-31T09:14:31.892Z,1024.616633516
2022-08-31T09:15:31.834Z,1024.616633516
2022-08-31T09:16:31.876Z,1024.616633516
2022-08-31T09:17:31.830Z,1024.616633516
2022-08-31T09:18:31.844Z,1024.5150421520002
2022-08-31T09:19:31.835Z,1024.616633516
2022-08-31T09:20:31.828Z,1024.5150421520002
2022-08-31T09:21:31.800Z,1024.413450788
2022-08-31T09:22:31.854Z,1024.616633516
2022-08-31T09:23:31.872Z,1024.616633516
2022-08-31T09:24:31.834Z,1024.819816244
2022-08-31T09:25:31.803Z,1024.616633516
2022-08-31T09:26:31.842Z,1024.71822488
2022-08-31T09:27:31.919Z,1024.616633516
2022-08-31T09:28:31.854Z,1024.616633516
2022-08-31T09:29:31.816Z,1024.616633516
2022-08-31T09:30:31.899Z,1024.71822488
2022-08-31T09:31:32.275Z,1024.819816244
2022-08-31T09:32:31.857Z,1024.819816244
2022-08-31T09:33:31.828Z,1024.616633516
2022-08-31T09:34:31.927Z,1024.616633516
2022-08-31T09:35:31.827Z,1024.5150421520002
2022-08-31T09:36:31.837Z,1024.5150421520002
2022-08-31T09:37:31.800Z,1024.616633516
2022-08-31T09:38:31.891Z,1024.5150421520002